createdAt,value
2023-03-06T00:01:45.589Z,5.90
2023-03-06T00:04:30.446Z,5.78
2023-03-06T00:07:21.598Z,6.63
2023-03-06T00:10:07.040Z,6.07
2023-03-06T00:13:05.622Z,5.40
2023-03-06T00:15:59.619Z,4.18
2023-03-06T00:18:51.632Z,8.70
2023-03-06T00:21:36.546Z,5.95
2023-03-06T00:24:27.621Z,5.22
2023-03-06T00:27:12.646Z,5.50
2023-03-06T00:30:05.630Z,6.53
2023-03-06T00:32:53.878Z,7.50
2023-03-06T00:35:46.637Z,7.85
2023-03-06T00:38:38.668Z,5.95
2023-03-06T00:41:36.604Z,6.37
2023-03-06T00:44:21.406Z,4.95
2023-03-06T00:47:13.619Z,6.13
2023-03-06T00:49:58.536Z,5.47
2023-03-06T00:52:49.618Z,9.30
2023-03-06T00:55:37.068Z,9.53
2023-03-06T00:58:28.634Z,6.55
2023-03-06T01:01:19.693Z,8.95
2023-03-06T01:04:04.981Z,8.07
2023-03-06T01:06:56.613Z,5.68
2023-03-06T01:09:48.624Z,7.47
2023-03-06T01:12:40.605Z,6.43
2023-03-06T01:15:25.744Z,6.95
2023-03-06T01:18:16.630Z,5.65
2023-03-06T01:21:08.627Z,8.10
2023-03-06T01:24:00.606Z,7.47
2023-03-06T01:26:51.598Z,5.57
2023-03-06T01:29:42.632Z,6.15
2023-03-06T01:32:33.656Z,8.75
2023-03-06T01:35:18.659Z,8.77
2023-03-06T01:38:10.614Z,7.17
2023-03-06T01:41:01.640Z,8.93
2023-03-06T01:43:47.285Z,9.15
2023-03-06T01:46:49.603Z,9.05
2023-03-06T01:49:37.490Z,8.02
2023-03-06T01:52:32.620Z,9.83
2023-03-06T01:55:20.921Z,7.72
2023-03-06T01:58:18.617Z,10.32
2023-03-06T02:01:10.651Z,9.65
2023-03-06T02:03:56.010Z,12.80
2023-03-06T02:06:50.615Z,9.27
2023-03-06T02:09:37.530Z,11.43
2023-03-06T02:12:29.622Z,12.38
2023-03-06T02:15:17.209Z,13.15
2023-03-06T02:18:08.618Z,13.52
2023-03-06T02:20:57.295Z,11.57
2023-03-06T02:24:21.619Z,17.33
2023-03-06T02:27:11.602Z,10.25
2023-03-06T02:30:03.625Z,7.60
2023-03-06T02:32:48.478Z,10.55
2023-03-06T02:35:42.699Z,19.57
2023-03-06T02:38:38.276Z,13.55
2023-03-06T02:41:37.642Z,12.02
2023-03-06T02:44:30.641Z,9.40
2023-03-06T02:47:15.599Z,11.88
2023-03-06T02:50:07.630Z,11.40
2023-03-06T02:52:52.517Z,9.73
2023-03-06T02:55:44.644Z,6.78
2023-03-06T02:58:29.798Z,9.18
2023-03-06T03:01:21.649Z,13.32
2023-03-06T03:04:12.669Z,13.87
2023-03-06T03:06:57.542Z,14.07
2023-03-06T03:09:49.635Z,8.35
2023-03-06T03:12:34.602Z,12.52
2023-03-06T03:15:25.634Z,13.65
2023-03-06T03:18:11.517Z,10.27
2023-03-06T03:21:05.628Z,11.82
2023-03-06T03:23:50.749Z,13.02
2023-03-06T03:26:42.629Z,14.45
2023-03-06T03:29:27.938Z,13.02
2023-03-06T03:32:19.703Z,18.33
2023-03-06T03:35:06.805Z,17.92
2023-03-06T03:37:58.626Z,14.55
2023-03-06T03:40:49.843Z,17.08
2023-03-06T03:43:41.632Z,14.75
2023-03-06T03:46:29.256Z,14.73
2023-03-06T03:49:21.641Z,14.25
2023-03-06T03:52:06.824Z,13.00
2023-03-06T03:54:58.676Z,17.30
2023-03-06T03:57:43.428Z,16.02
2023-03-06T04:00:34.641Z,17.33
2023-03-06T04:03:19.658Z,13.52
2023-03-06T04:06:11.641Z,13.07
2023-03-06T04:08:56.923Z,9.85
2023-03-06T04:11:48.646Z,14.93
2023-03-06T04:14:34.012Z,15.60
2023-03-06T04:17:25.656Z,9.15
2023-03-06T04:20:11.330Z,16.17
2023-03-06T04:23:02.644Z,16.88
2023-03-06T04:25:48.012Z,17.55
2023-03-06T04:28:39.642Z,19.23
2023-03-06T04:31:31.691Z,23.08
2023-03-06T04:34:16.668Z,16.35
2023-03-06T04:37:08.653Z,12.77
2023-03-06T04:40:06.648Z,17.63
2023-03-06T04:43:05.641Z,10.73
2023-03-06T04:45:57.700Z,16.15
2023-03-06T04:48:49.644Z,8.30
2023-03-06T04:51:36.718Z,8.30
2023-03-06T04:54:28.637Z,12.77
2023-03-06T04:57:14.078Z,16.23
2023-03-06T05:00:07.438Z,11.20
2023-03-06T05:02:53.766Z,15.75
2023-03-06T05:05:51.650Z,6.10
2023-03-06T05:08:42.624Z,13.82
2023-03-06T05:11:27.781Z,15.27
2023-03-06T05:14:19.646Z,16.33
2023-03-06T05:17:05.954Z,21.23
2023-03-06T05:19:57.630Z,19.73
2023-03-06T05:22:50.650Z,17.27
2023-03-06T05:25:38.849Z,17.20
2023-03-06T05:28:30.629Z,19.20
2023-03-06T05:31:16.301Z,21.48
2023-03-06T05:34:07.640Z,20.45
2023-03-06T05:36:52.737Z,22.20
2023-03-06T05:39:43.646Z,16.67
2023-03-06T05:42:37.697Z,18.83
2023-03-06T05:45:28.659Z,22.05
2023-03-06T05:48:20.637Z,23.77
2023-03-06T05:51:06.268Z,20.55
2023-03-06T05:53:57.674Z,19.37
2023-03-06T05:56:42.983Z,20.88
2023-03-06T05:59:35.645Z,23.00
2023-03-06T06:02:20.893Z,23.13
2023-03-06T06:05:13.285Z,19.38
2023-03-06T06:08:04.670Z,23.87
2023-03-06T06:10:53.189Z,20.60
2023-03-06T06:13:46.641Z,23.52
2023-03-06T06:16:31.501Z,16.95
2023-03-06T06:19:26.661Z,20.05
2023-03-06T06:22:12.213Z,21.13
2023-03-06T06:25:04.607Z,24.90
2023-03-06T06:27:49.879Z,20.90
2023-03-06T06:30:41.670Z,20.30
2023-03-06T06:33:26.679Z,23.98
2023-03-06T06:36:25.672Z,20.33
2023-03-06T06:39:32.653Z,24.27
2023-03-06T06:42:38.253Z,22.45
2023-03-06T06:45:24.616Z,21.30
2023-03-06T06:48:17.925Z,18.40
2023-03-06T06:51:03.291Z,17.63
2023-03-06T06:53:57.627Z,21.08
2023-03-06T06:56:49.653Z,23.65
2023-03-06T06:59:41.686Z,23.75
2023-03-06T07:02:26.813Z,15.15
2023-03-06T07:05:20.230Z,25.13
2023-03-06T07:08:06.095Z,24.02
2023-03-06T07:10:57.678Z,20.92
2023-03-06T07:13:42.389Z,22.98
2023-03-06T07:16:34.683Z,23.42
2023-03-06T07:19:19.387Z,27.87
2023-03-06T07:22:11.659Z,23.15
2023-03-06T07:24:56.894Z,24.77
2023-03-06T07:27:53.364Z,20.90
2023-03-06T07:30:42.251Z,14.55
2023-03-06T07:33:33.674Z,7.77
2023-03-06T07:36:19.302Z,19.27
2023-03-06T07:39:10.686Z,17.50
2023-03-06T07:42:02.128Z,6.57
2023-03-06T07:44:53.682Z,21.67
2023-03-06T07:47:39.536Z,20.80
2023-03-06T07:50:31.672Z,22.40
2023-03-06T07:53:16.845Z,25.83
2023-03-06T07:56:15.708Z,22.50
2023-03-06T07:59:01.307Z,21.65
2023-03-06T08:01:52.678Z,20.37
2023-03-06T08:04:44.728Z,22.95
2023-03-06T08:07:30.720Z,24.63
2023-03-06T08:10:22.665Z,15.63
2023-03-06T08:13:09.966Z,31.35
2023-03-06T08:16:02.691Z,26.50
2023-03-06T08:18:54.719Z,24.48
2023-03-06T08:21:47.904Z,26.48
2023-03-06T08:24:34.411Z,22.10
2023-03-06T08:27:25.685Z,22.38
2023-03-06T08:30:10.995Z,26.07
2023-03-06T08:33:02.682Z,24.17
2023-03-06T08:35:48.018Z,17.45
2023-03-06T08:38:39.691Z,20.10
2023-03-06T08:41:31.717Z,20.23
2023-03-06T08:44:22.692Z,24.90
2023-03-06T08:47:10.102Z,23.08
2023-03-06T08:50:01.671Z,19.10
2023-03-06T08:52:46.594Z,21.70
2023-03-06T08:55:38.682Z,20.65
2023-03-06T08:58:23.545Z,20.03
2023-03-06T09:01:20.727Z,20.35
2023-03-06T09:04:08.616Z,19.67
2023-03-06T09:06:59.693Z,22.05
2023-03-06T09:09:47.248Z,12.25
2023-03-06T09:12:49.840Z,18.97
2023-03-06T09:15:35.976Z,22.27
2023-03-06T09:18:27.692Z,18.95
2023-03-06T09:21:12.568Z,21.55
2023-03-06T09:24:06.707Z,21.77
2023-03-06T09:26:57.687Z,15.13
2023-03-06T09:29:49.706Z,21.83
2023-03-06T09:32:34.516Z,21.23
2023-03-06T09:35:25.686Z,22.80
2023-03-06T09:38:10.774Z,20.25
2023-03-06T09:41:05.685Z,20.27
2023-03-06T09:43:53.906Z,17.10
2023-03-06T09:47:01.691Z,22.50
2023-03-06T09:50:21.138Z,17.15
2023-03-06T09:53:43.687Z,19.27
2023-03-06T09:56:32.668Z,18.80
2023-03-06T09:59:30.707Z,15.10
2023-03-06T10:02:26.619Z,14.43
2023-03-06T10:05:29.730Z,18.35
2023-03-06T10:08:58.710Z,14.50
2023-03-06T10:11:54.690Z,17.67
2023-03-06T10:15:06.698Z,16.83
2023-03-06T10:17:52.209Z,18.17
2023-03-06T10:20:56.964Z,18.25
2023-03-06T10:24:00.701Z,17.27
2023-03-06T10:26:55.073Z,15.37
2023-03-06T10:30:02.794Z,14.98
2023-03-06T10:33:06.016Z,17.80
2023-03-06T10:36:02.758Z,18.65
2023-03-06T10:38:55.711Z,18.95
2023-03-06T10:42:01.717Z,15.80
2023-03-06T10:44:52.758Z,4.47
2023-03-06T10:47:40.530Z,12.77
2023-03-06T10:50:34.743Z,15.32
2023-03-06T10:53:26.407Z,21.08
2023-03-06T10:56:17.720Z,11.73
2023-03-06T10:59:14.942Z,19.30
2023-03-06T11:02:35.720Z,10.18
2023-03-06T11:05:20.893Z,21.45
2023-03-06T11:08:28.709Z,17.92
2023-03-06T11:11:36.362Z,13.10
2023-03-06T11:14:31.717Z,15.18
2023-03-06T11:17:34.710Z,11.73
2023-03-06T11:20:52.985Z,11.80
2023-03-06T11:23:48.705Z,18.27
2023-03-06T11:26:41.110Z,12.33
2023-03-06T11:29:40.788Z,16.38
2023-03-06T11:32:39.765Z,16.27
2023-03-06T11:35:28.263Z,21.30
2023-03-06T11:38:28.705Z,18.77
2023-03-06T11:41:48.709Z,15.77
2023-03-06T11:45:13.715Z,18.00
2023-03-06T11:48:24.716Z,16.95
2023-03-06T11:51:33.134Z,18.73
2023-03-06T11:54:24.709Z,17.42
2023-03-06T11:57:19.818Z,19.43
2023-03-06T12:00:42.725Z,9.07
2023-03-06T12:03:45.100Z,13.43
2023-03-06T12:06:44.723Z,13.02
2023-03-06T12:09:52.740Z,19.77
2023-03-06T12:13:20.019Z,20.77
2023-03-06T12:16:30.745Z,16.95
2023-03-06T12:19:27.806Z,16.70
2023-03-06T12:22:38.718Z,22.00
2023-03-06T12:25:40.735Z,15.98
2023-03-06T12:28:34.948Z,16.97
2023-03-06T12:31:57.738Z,16.95
2023-03-06T12:35:07.147Z,14.38
2023-03-06T12:38:35.735Z,13.73
2023-03-06T12:41:59.744Z,17.33
2023-03-06T12:45:16.527Z,15.80
2023-03-06T12:48:08.717Z,19.17
2023-03-06T12:50:54.202Z,15.00
2023-03-06T12:53:51.973Z,16.50
2023-03-06T12:56:39.445Z,13.45
2023-03-06T12:59:54.736Z,15.37
2023-03-06T13:02:51.157Z,17.02
2023-03-06T13:06:05.765Z,12.85
2023-03-06T13:09:15.739Z,17.67
2023-03-06T13:12:42.786Z,12.02
2023-03-06T13:15:51.758Z,14.07
2023-03-06T13:18:39.348Z,14.02
2023-03-06T13:22:02.975Z,14.93
2023-03-06T13:25:23.767Z,14.25
2023-03-06T13:28:26.171Z,13.60
2023-03-06T13:31:33.623Z,13.27
2023-03-06T13:34:36.065Z,15.35
2023-03-06T13:37:29.753Z,14.98
2023-03-06T13:40:48.820Z,18.85
2023-03-06T13:43:47.750Z,15.10
2023-03-06T13:46:37.072Z,12.57
2023-03-06T13:49:30.721Z,15.65
2023-03-06T13:52:39.746Z,16.42
2023-03-06T13:55:33.917Z,16.42
2023-03-06T13:59:01.734Z,13.10
2023-03-06T14:02:07.226Z,14.67
2023-03-06T14:05:05.252Z,17.92
2023-03-06T14:08:17.741Z,16.77
2023-03-06T14:11:15.382Z,15.73
2023-03-06T14:14:00.526Z,15.02
2023-03-06T14:16:56.737Z,13.50
2023-03-06T14:19:48.739Z,13.05
2023-03-06T14:22:40.733Z,18.10
2023-03-06T14:25:30.536Z,9.50
2023-03-06T14:28:36.735Z,13.88
2023-03-06T14:31:24.426Z,15.20
2023-03-06T14:34:27.734Z,18.00
2023-03-06T14:37:28.813Z,13.48
2023-03-06T14:40:40.736Z,12.73
2023-03-06T14:43:33.753Z,12.35
2023-03-06T14:46:21.556Z,11.97
2023-03-06T14:49:13.768Z,13.77
2023-03-06T14:52:02.168Z,13.35
2023-03-06T14:54:54.764Z,17.25
2023-03-06T14:57:39.776Z,15.38
2023-03-06T15:00:35.842Z,15.07
2023-03-06T15:03:33.908Z,15.77
2023-03-06T15:06:28.753Z,16.52
2023-03-06T15:09:26.776Z,13.95
2023-03-06T15:12:21.096Z,14.13
2023-03-06T15:15:34.754Z,14.80
2023-03-06T15:18:36.744Z,14.55
2023-03-06T15:21:24.011Z,11.75
2023-03-06T15:24:42.744Z,16.25
2023-03-06T15:27:36.747Z,14.52
2023-03-06T15:30:39.748Z,15.07
2023-03-06T15:33:26.478Z,15.18
2023-03-06T15:36:33.761Z,14.57
2023-03-06T15:39:41.764Z,15.88
2023-03-06T15:42:40.759Z,16.55
2023-03-06T15:45:31.534Z,9.80
2023-03-06T15:48:23.774Z,15.70
2023-03-06T15:51:15.849Z,17.30
2023-03-06T15:54:11.936Z,12.07
2023-03-06T15:57:03.767Z,15.82
2023-03-06T15:59:49.166Z,14.63
2023-03-06T16:02:40.770Z,14.50
2023-03-06T16:05:33.762Z,16.15
2023-03-06T16:08:18.984Z,15.52
2023-03-06T16:11:10.755Z,17.20
2023-03-06T16:14:04.777Z,14.97
2023-03-06T16:16:58.792Z,17.20
2023-03-06T16:19:44.043Z,12.70
2023-03-06T16:22:35.774Z,14.68
2023-03-06T16:25:22.697Z,16.23
2023-03-06T16:28:22.827Z,16.53
2023-03-06T16:31:17.755Z,17.50
2023-03-06T16:34:03.108Z,13.35
2023-03-06T16:36:55.764Z,15.25
2023-03-06T16:39:40.845Z,18.58
2023-03-06T16:42:38.769Z,15.80
2023-03-06T16:45:30.610Z,15.20
2023-03-06T16:48:23.776Z,19.27
2023-03-06T16:51:14.847Z,14.40
2023-03-06T16:54:09.796Z,17.13
2023-03-06T16:57:00.770Z,20.07
2023-03-06T16:59:51.790Z,15.55
2023-03-06T17:02:50.184Z,16.52
2023-03-06T17:05:36.518Z,16.52
2023-03-06T17:08:27.776Z,10.00
2023-03-06T17:11:19.762Z,10.87
2023-03-06T17:14:07.048Z,17.38
2023-03-06T17:16:59.765Z,16.52
2023-03-06T17:19:55.777Z,13.10
2023-03-06T17:22:41.472Z,16.25
2023-03-06T17:25:32.787Z,12.57
2023-03-06T17:28:18.013Z,9.18
2023-03-06T17:31:30.855Z,17.60
2023-03-06T17:34:23.628Z,13.23
2023-03-06T17:37:09.939Z,13.30
2023-03-06T17:40:00.799Z,16.60
2023-03-06T17:42:51.840Z,15.57
2023-03-06T17:45:42.784Z,16.75
2023-03-06T17:48:27.646Z,16.65
2023-03-06T17:51:19.815Z,13.70
2023-03-06T17:54:11.782Z,13.73
2023-03-06T17:57:00.846Z,16.65
2023-03-06T17:59:54.787Z,13.75
2023-03-06T18:02:39.682Z,24.02
2023-03-06T18:05:30.783Z,13.20
2023-03-06T18:08:22.979Z,13.70
2023-03-06T18:11:09.664Z,18.52
2023-03-06T18:14:05.284Z,20.70
2023-03-06T18:16:50.560Z,16.13
2023-03-06T18:19:41.778Z,23.65
2023-03-06T18:22:32.769Z,16.67
2023-03-06T18:25:23.801Z,19.85
2023-03-06T18:28:09.045Z,17.42
2023-03-06T18:31:00.793Z,16.80
2023-03-06T18:33:48.495Z,14.48
2023-03-06T18:36:40.807Z,17.53
2023-03-06T18:39:25.928Z,19.58
2023-03-06T18:42:23.784Z,15.55
2023-03-06T18:45:10.179Z,16.05
2023-03-06T18:48:01.798Z,15.85
2023-03-06T18:50:47.022Z,14.90
2023-03-06T18:53:38.806Z,16.95
2023-03-06T18:56:23.902Z,16.35
2023-03-06T18:59:17.603Z,10.63
2023-03-06T19:02:03.942Z,14.60
2023-03-06T19:04:55.804Z,13.63
2023-03-06T19:07:46.773Z,15.43
2023-03-06T19:10:41.793Z,16.45
2023-03-06T19:13:26.861Z,19.30
2023-03-06T19:16:25.881Z,17.98
2023-03-06T19:19:20.624Z,16.23
2023-03-06T19:22:05.935Z,18.33
2023-03-06T19:24:57.800Z,17.35
2023-03-06T19:27:50.785Z,19.02
2023-03-06T19:30:39.997Z,12.68
2023-03-06T19:33:34.810Z,11.77
2023-03-06T19:36:32.357Z,8.32
2023-03-06T19:39:18.600Z,11.35
2023-03-06T19:42:16.813Z,12.27
2023-03-06T19:45:01.891Z,3.30
2023-03-06T19:47:53.790Z,15.70
2023-03-06T19:50:42.285Z,10.63
2023-03-06T19:53:34.797Z,8.88
2023-03-06T19:56:22.188Z,10.02
2023-03-06T19:59:13.826Z,9.48
2023-03-06T20:01:58.750Z,6.73
2023-03-06T20:04:49.866Z,11.27
2023-03-06T20:07:37.974Z,6.85
2023-03-06T20:10:29.799Z,7.10
2023-03-06T20:13:14.522Z,10.55
2023-03-06T20:16:08.889Z,11.80
2023-03-06T20:18:55.176Z,9.70
2023-03-06T20:21:46.820Z,12.65
2023-03-06T20:24:31.709Z,10.63
2023-03-06T20:27:22.810Z,15.32
2023-03-06T20:30:14.813Z,13.83
2023-03-06T20:32:59.865Z,11.00
2023-03-06T20:35:51.831Z,13.55
2023-03-06T20:38:43.789Z,13.35
2023-03-06T20:41:49.836Z,9.75
2023-03-06T20:44:42.791Z,13.23
2023-03-06T20:47:27.690Z,7.80
2023-03-06T20:50:21.802Z,13.85
2023-03-06T20:53:06.875Z,4.53
2023-03-06T20:55:58.803Z,12.10
2023-03-06T20:58:44.020Z,9.30
2023-03-06T21:01:42.012Z,3.10
2023-03-06T21:04:26.949Z,7.13
2023-03-06T21:07:19.810Z,11.23
2023-03-06T21:10:12.813Z,12.93
2023-03-06T21:13:04.823Z,13.30
2023-03-06T21:15:49.902Z,15.95
2023-03-06T21:18:44.796Z,11.77
2023-03-06T21:21:32.913Z,14.98
2023-03-06T21:24:23.829Z,8.32
2023-03-06T21:27:15.836Z,10.17
2023-03-06T21:30:06.820Z,14.82
2023-03-06T21:32:58.832Z,14.65
2023-03-06T21:35:51.821Z,12.55
2023-03-06T21:38:37.568Z,19.83
2023-03-06T21:41:31.830Z,15.03
2023-03-06T21:44:32.789Z,10.27
2023-03-06T21:47:18.142Z,18.52
2023-03-06T21:50:09.817Z,10.43
2023-03-06T21:52:56.147Z,15.15
2023-03-06T21:55:47.822Z,11.33
2023-03-06T21:58:33.226Z,9.57
2023-03-06T22:01:30.820Z,10.18
2023-03-06T22:04:16.097Z,9.90
2023-03-06T22:07:06.822Z,9.25
2023-03-06T22:09:59.815Z,12.60
2023-03-06T22:12:46.436Z,18.70
2023-03-06T22:15:37.818Z,18.80
2023-03-06T22:18:28.841Z,18.00
2023-03-06T22:21:20.576Z,10.50
2023-03-06T22:24:12.817Z,16.87
2023-03-06T22:26:57.774Z,19.50
2023-03-06T22:29:48.821Z,14.85
2023-03-06T22:32:34.582Z,7.25
2023-03-06T22:35:28.834Z,16.27
2023-03-06T22:38:15.801Z,10.70
2023-03-06T22:41:07.817Z,13.77
2023-03-06T22:44:12.824Z,11.55
2023-03-06T22:46:58.166Z,9.77
2023-03-06T22:49:49.813Z,13.65
2023-03-06T22:52:35.076Z,15.87
2023-03-06T22:55:26.810Z,14.38
2023-03-06T22:58:11.902Z,15.15
2023-03-06T23:01:02.822Z,13.05
2023-03-06T23:03:56.837Z,14.65
2023-03-06T23:06:43.125Z,9.50
2023-03-06T23:09:34.812Z,11.98
2023-03-06T23:12:19.539Z,11.75
2023-03-06T23:15:11.815Z,9.95
2023-03-06T23:17:57.057Z,11.15
2023-03-06T23:20:50.819Z,5.17
2023-03-06T23:23:37.192Z,12.93
2023-03-06T23:26:31.828Z,12.45
2023-03-06T23:29:16.883Z,15.73
2023-03-06T23:32:08.878Z,10.10
2023-03-06T23:34:54.103Z,10.40
2023-03-06T23:37:45.838Z,12.35
2023-03-06T23:40:37.824Z,8.93
2023-03-06T23:43:38.668Z,10.68
2023-03-06T23:46:31.075Z,14.07
2023-03-06T23:49:16.506Z,12.13
2023-03-06T23:52:08.830Z,6.35
2023-03-06T23:55:00.837Z,7.82
2023-03-06T23:57:52.852Z,4.55
